createdAt,value
2018-02-13T00:02:13.689Z,6.82
2018-02-13T00:04:41.806Z,7.57
2018-02-13T00:07:09.955Z,7.68
2018-02-13T00:09:38.844Z,7.93
2018-02-13T00:12:07.000Z,9.60
2018-02-13T00:14:35.133Z,9.65
2018-02-13T00:17:03.293Z,9.27
2018-02-13T00:19:31.416Z,9.50
2018-02-13T00:21:59.569Z,9.93
2018-02-13T00:24:27.704Z,12.25
2018-02-13T00:26:55.874Z,13.90
2018-02-13T00:29:24.014Z,11.48
2018-02-13T00:31:52.186Z,13.48
2018-02-13T00:34:20.328Z,13.02
2018-02-13T00:36:48.524Z,12.52
2018-02-13T00:39:16.658Z,12.48
2018-02-13T00:41:44.822Z,14.40
2018-02-13T00:44:12.959Z,13.05
2018-02-13T00:46:41.113Z,13.18
2018-02-13T00:49:09.241Z,16.27
2018-02-13T00:51:37.412Z,13.35
2018-02-13T00:54:05.544Z,14.18
2018-02-13T00:56:33.703Z,13.88
2018-02-13T00:59:01.834Z,14.55
2018-02-13T01:01:29.992Z,14.95
2018-02-13T01:03:58.888Z,16.08
2018-02-13T01:06:27.045Z,14.80
2018-02-13T01:08:55.181Z,15.65
2018-02-13T01:11:23.337Z,16.50
2018-02-13T01:13:51.468Z,15.23
2018-02-13T01:16:19.625Z,16.75
2018-02-13T01:18:47.757Z,16.10
2018-02-13T01:21:15.912Z,15.57
2018-02-13T01:23:44.045Z,16.75
2018-02-13T01:26:12.201Z,15.52
2018-02-13T01:28:40.328Z,16.10
2018-02-13T01:31:08.494Z,19.48
2018-02-13T01:33:36.625Z,14.60
2018-02-13T01:36:04.789Z,14.40
2018-02-13T01:38:32.919Z,13.20
2018-02-13T01:41:01.823Z,12.75
2018-02-13T01:43:29.985Z,13.65
2018-02-13T01:45:58.125Z,13.20
2018-02-13T01:48:26.289Z,13.60
2018-02-13T01:50:54.417Z,12.57
2018-02-13T01:53:22.582Z,14.05
2018-02-13T01:55:50.718Z,12.32
2018-02-13T01:58:18.885Z,11.85
2018-02-13T02:00:47.019Z,11.32
2018-02-13T02:03:15.173Z,10.10
2018-02-13T02:05:44.065Z,11.20
2018-02-13T02:08:12.216Z,12.73
2018-02-13T02:10:41.119Z,10.43
2018-02-13T02:13:09.259Z,8.60
2018-02-13T02:15:37.390Z,9.90
2018-02-13T02:18:05.543Z,10.75
2018-02-13T02:20:33.670Z,9.68
2018-02-13T02:23:01.821Z,9.95
2018-02-13T02:25:29.950Z,9.75
2018-02-13T02:27:58.865Z,9.00
2018-02-13T02:30:26.986Z,9.43
2018-02-13T02:32:55.139Z,7.87
2018-02-13T02:35:23.260Z,8.90
2018-02-13T02:37:51.414Z,8.70
2018-02-13T02:40:19.543Z,10.45
2018-02-13T02:42:59.391Z,7.93
2018-02-13T02:45:27.510Z,8.70
2018-02-13T02:47:55.665Z,9.35
2018-02-13T02:50:23.791Z,11.15
2018-02-13T02:52:51.949Z,10.52
2018-02-13T02:55:20.848Z,11.57
2018-02-13T02:57:49.019Z,11.48
2018-02-13T03:00:17.927Z,12.80
2018-02-13T03:02:46.088Z,11.18
2018-02-13T03:05:14.986Z,13.95
2018-02-13T03:07:43.150Z,13.13
2018-02-13T03:10:12.058Z,11.57
2018-02-13T03:12:40.226Z,12.25
2018-02-13T03:15:08.355Z,12.05
2018-02-13T03:17:36.517Z,12.98
2018-02-13T03:20:04.648Z,13.27
2018-02-13T03:22:32.818Z,14.10
2018-02-13T03:25:00.963Z,12.95
2018-02-13T03:27:29.128Z,15.32
2018-02-13T03:29:57.260Z,14.93
2018-02-13T03:32:25.421Z,14.75
2018-02-13T03:34:53.572Z,15.50
2018-02-13T03:37:21.724Z,15.63
2018-02-13T03:39:49.889Z,16.23
2018-02-13T03:42:18.063Z,16.20
2018-02-13T03:44:46.198Z,16.15
2018-02-13T03:47:14.366Z,16.00
2018-02-13T03:49:42.509Z,14.73
2018-02-13T03:52:11.444Z,16.35
2018-02-13T03:54:39.576Z,14.52
2018-02-13T03:57:08.505Z,14.82
2018-02-13T03:59:36.641Z,13.88
2018-02-13T04:02:05.581Z,17.33
2018-02-13T04:04:33.714Z,14.10
2018-02-13T04:07:02.653Z,14.45
2018-02-13T04:09:30.793Z,16.00
2018-02-13T04:11:59.000Z,12.15
2018-02-13T04:14:27.114Z,14.23
2018-02-13T04:16:55.285Z,13.30
2018-02-13T04:19:24.195Z,13.98
2018-02-13T04:21:52.360Z,14.02
2018-02-13T04:24:21.261Z,14.07
2018-02-13T04:26:49.411Z,14.35
2018-02-13T04:29:17.574Z,15.77
2018-02-13T04:31:45.708Z,16.70
2018-02-13T04:34:13.881Z,12.80
2018-02-13T04:36:42.026Z,13.68
2018-02-13T04:39:10.958Z,14.70
2018-02-13T04:41:39.096Z,12.60
2018-02-13T04:44:07.261Z,15.45
2018-02-13T04:46:35.402Z,16.48
2018-02-13T04:49:03.565Z,13.55
2018-02-13T04:51:31.715Z,15.57
2018-02-13T04:53:59.869Z,14.45
2018-02-13T04:56:28.006Z,15.88
2018-02-13T04:58:56.169Z,17.52
2018-02-13T05:01:24.306Z,15.82
2018-02-13T05:03:52.469Z,15.60
2018-02-13T05:06:20.596Z,14.85
2018-02-13T05:08:48.768Z,13.40
2018-02-13T05:11:17.693Z,13.90
2018-02-13T05:13:45.860Z,16.30
2018-02-13T05:16:14.755Z,19.40
2018-02-13T05:18:42.922Z,16.35
2018-02-13T05:21:11.820Z,15.70
2018-02-13T05:23:39.985Z,14.07
2018-02-13T05:26:08.902Z,16.62
2018-02-13T05:28:37.069Z,15.65
2018-02-13T05:31:05.202Z,14.38
2018-02-13T05:33:33.370Z,16.67
2018-02-13T05:36:01.498Z,16.67
2018-02-13T05:38:29.663Z,16.70
2018-02-13T05:40:57.803Z,15.10
2018-02-13T05:43:25.970Z,16.65
2018-02-13T05:45:54.096Z,16.48
2018-02-13T05:48:22.263Z,15.85
2018-02-13T05:50:50.402Z,17.25
2018-02-13T05:53:18.565Z,17.67
2018-02-13T05:55:46.713Z,18.45
2018-02-13T05:58:14.874Z,20.23
2018-02-13T06:00:43.001Z,19.42
2018-02-13T06:03:11.169Z,17.45
2018-02-13T06:05:39.302Z,19.73
2018-02-13T06:08:07.466Z,20.42
2018-02-13T06:10:35.604Z,18.08
2018-02-13T06:13:03.774Z,22.08
2018-02-13T06:15:31.926Z,19.02
2018-02-13T06:18:00.093Z,19.62
2018-02-13T06:20:28.228Z,21.70
2018-02-13T06:22:56.434Z,21.42
2018-02-13T06:25:24.577Z,22.08
2018-02-13T06:27:52.745Z,25.70
2018-02-13T06:30:20.892Z,21.95
2018-02-13T06:32:49.084Z,23.48
2018-02-13T06:35:17.221Z,22.60
2018-02-13T06:37:45.383Z,24.85
2018-02-13T06:40:13.526Z,25.67
2018-02-13T06:42:41.686Z,24.17
2018-02-13T06:45:09.818Z,26.15
2018-02-13T06:47:38.002Z,23.83
2018-02-13T06:50:06.173Z,23.87
2018-02-13T06:52:34.303Z,26.65
2018-02-13T06:55:02.467Z,25.02
2018-02-13T06:57:30.602Z,25.88
2018-02-13T06:59:58.765Z,22.42
2018-02-13T07:02:27.672Z,24.17
2018-02-13T07:04:55.837Z,27.10
2018-02-13T07:07:24.733Z,24.80
2018-02-13T07:09:52.896Z,24.00
2018-02-13T07:12:21.819Z,25.10
2018-02-13T07:14:49.984Z,24.73
2018-02-13T07:17:18.116Z,24.48
2018-02-13T07:19:46.288Z,26.48
2018-02-13T07:22:14.417Z,22.58
2018-02-13T07:24:42.581Z,25.75
2018-02-13T07:27:10.718Z,23.23
2018-02-13T07:29:38.894Z,20.52
2018-02-13T07:32:07.056Z,19.25
2018-02-13T07:34:35.231Z,22.90
2018-02-13T07:37:03.357Z,20.23
2018-02-13T07:39:31.521Z,19.48
2018-02-13T07:41:59.661Z,18.35
2018-02-13T07:44:28.588Z,21.85
2018-02-13T07:46:56.725Z,22.40
2018-02-13T07:49:25.657Z,23.25
2018-02-13T07:51:53.794Z,25.05
2018-02-13T07:54:21.957Z,24.00
2018-02-13T07:56:50.093Z,21.67
2018-02-13T07:59:18.258Z,21.23
2018-02-13T08:01:46.398Z,23.25
2018-02-13T08:04:15.321Z,20.65
2018-02-13T08:06:43.466Z,24.27
2018-02-13T08:09:12.389Z,23.10
2018-02-13T08:11:40.527Z,25.50
2018-02-13T08:14:09.448Z,25.33
2018-02-13T08:16:37.588Z,21.00
2018-02-13T08:19:06.521Z,23.48
2018-02-13T08:21:34.664Z,20.58
2018-02-13T08:24:03.586Z,22.35
2018-02-13T08:26:31.709Z,23.52
2018-02-13T08:29:00.632Z,20.35
2018-02-13T08:31:28.807Z,21.42
2018-02-13T08:33:56.970Z,23.38
2018-02-13T08:36:25.104Z,26.12
2018-02-13T08:38:53.270Z,23.00
2018-02-13T08:41:21.403Z,25.08
2018-02-13T08:43:49.558Z,24.52
2018-02-13T08:46:17.697Z,23.25
2018-02-13T08:48:45.861Z,23.08
2018-02-13T08:51:13.992Z,22.17
2018-02-13T08:53:42.149Z,25.85
2018-02-13T08:56:10.288Z,22.87
2018-02-13T08:58:38.446Z,24.80
2018-02-13T09:01:06.571Z,23.55
2018-02-13T09:03:35.493Z,24.17
2018-02-13T09:06:03.620Z,23.45
2018-02-13T09:08:32.540Z,25.45
2018-02-13T09:11:00.672Z,25.40
2018-02-13T09:13:28.855Z,23.38
2018-02-13T09:15:56.984Z,25.55
2018-02-13T09:18:25.131Z,25.65
2018-02-13T09:20:53.291Z,23.80
2018-02-13T09:23:22.185Z,26.67
2018-02-13T09:25:50.354Z,27.87
2018-02-13T09:28:19.247Z,25.20
2018-02-13T09:30:47.404Z,24.52
2018-02-13T09:33:16.310Z,24.55
2018-02-13T09:35:44.460Z,23.55
2018-02-13T09:38:12.602Z,24.40
2018-02-13T09:40:40.767Z,24.15
2018-02-13T09:43:08.894Z,25.67
2018-02-13T09:45:37.045Z,23.25
2018-02-13T09:48:05.184Z,51.58
2018-02-13T09:50:33.344Z,25.05
2018-02-13T09:53:01.485Z,29.50
2018-02-13T09:55:29.654Z,27.37
2018-02-13T09:57:58.590Z,25.37
2018-02-13T10:00:26.734Z,25.80
2018-02-13T10:02:55.646Z,26.92
2018-02-13T10:05:23.779Z,22.52
2018-02-13T10:07:51.937Z,25.05
2018-02-13T10:10:20.074Z,25.50
2018-02-13T10:12:48.257Z,22.87
2018-02-13T10:15:16.385Z,25.55
2018-02-13T10:17:45.321Z,24.45
2018-02-13T10:20:13.473Z,23.38
2018-02-13T10:22:41.644Z,20.12
2018-02-13T10:25:09.778Z,24.45
2018-02-13T10:27:37.942Z,25.20
2018-02-13T10:30:06.074Z,26.30
2018-02-13T10:32:34.237Z,25.50
2018-02-13T10:35:02.414Z,24.17
2018-02-13T10:37:30.549Z,25.75
2018-02-13T10:39:58.709Z,24.27
2018-02-13T10:42:26.847Z,23.70
2018-02-13T10:44:55.009Z,23.30
2018-02-13T10:47:23.137Z,22.45
2018-02-13T10:49:51.345Z,24.33
2018-02-13T10:52:19.453Z,20.27
2018-02-13T10:54:47.651Z,22.90
2018-02-13T10:57:15.808Z,23.38
2018-02-13T10:59:43.962Z,21.50
2018-02-13T11:02:17.796Z,22.90
2018-02-13T11:04:45.957Z,22.80
2018-02-13T11:07:14.091Z,20.58
2018-02-13T11:09:42.242Z,20.02
2018-02-13T11:12:10.378Z,20.05
2018-02-13T11:14:38.539Z,20.77
2018-02-13T11:17:06.669Z,20.12
2018-02-13T11:19:34.830Z,18.73
2018-02-13T11:22:02.962Z,18.98
2018-02-13T11:24:31.119Z,20.90
2018-02-13T11:26:59.253Z,19.05
2018-02-13T11:29:27.421Z,17.58
2018-02-13T11:31:55.574Z,18.25
2018-02-13T11:34:23.793Z,19.92
2018-02-13T11:36:51.945Z,17.45
2018-02-13T11:39:20.130Z,18.25
2018-02-13T11:41:48.314Z,19.08
2018-02-13T11:44:16.453Z,17.02
2018-02-13T11:46:44.617Z,19.92
2018-02-13T11:49:12.772Z,20.37
2018-02-13T11:51:40.932Z,20.42
2018-02-13T11:54:09.074Z,17.12
2018-02-13T11:56:38.032Z,18.60
2018-02-13T11:59:06.164Z,18.55
2018-02-13T12:01:34.353Z,17.55
2018-02-13T12:04:02.486Z,16.83
2018-02-13T12:06:30.642Z,15.63
2018-02-13T12:08:58.781Z,19.55
2018-02-13T12:11:26.936Z,16.87
2018-02-13T12:13:55.074Z,18.90
2018-02-13T12:16:23.238Z,19.55
2018-02-13T12:18:51.373Z,18.20
2018-02-13T12:21:19.525Z,17.27
2018-02-13T12:23:47.677Z,17.73
2018-02-13T12:26:15.839Z,18.23
2018-02-13T12:28:43.966Z,17.40
2018-02-13T12:31:12.126Z,18.45
2018-02-13T12:33:40.256Z,14.65
2018-02-13T12:36:08.418Z,16.27
2018-02-13T12:38:36.545Z,17.67
2018-02-13T12:41:04.704Z,16.60
2018-02-13T12:43:32.833Z,15.60
2018-02-13T12:46:01.012Z,15.63
2018-02-13T12:48:29.152Z,14.82
2018-02-13T12:50:57.314Z,14.55
2018-02-13T12:53:25.444Z,14.27
2018-02-13T12:55:53.610Z,14.73
2018-02-13T12:58:21.752Z,13.65
2018-02-13T13:00:49.927Z,12.63
2018-02-13T13:03:18.070Z,13.85
2018-02-13T13:05:46.231Z,10.32
2018-02-13T13:08:15.127Z,9.35
2018-02-13T13:10:43.283Z,11.93
2018-02-13T13:13:11.438Z,10.90
2018-02-13T13:15:39.597Z,11.25
2018-02-13T13:18:07.729Z,9.30
2018-02-13T13:20:36.742Z,9.30
2018-02-13T13:23:04.864Z,8.15
2018-02-13T13:25:33.032Z,9.60
2018-02-13T13:28:01.165Z,7.35
2018-02-13T13:30:29.312Z,7.40
2018-02-13T13:32:57.440Z,7.28
2018-02-13T13:35:25.595Z,7.60
2018-02-13T13:37:53.722Z,9.20
2018-02-13T13:40:21.873Z,7.65
2018-02-13T13:42:50.006Z,8.52
2018-02-13T13:45:18.154Z,7.12
2018-02-13T13:47:46.285Z,5.62
2018-02-13T13:50:14.438Z,6.50
2018-02-13T13:52:42.562Z,6.78
2018-02-13T13:55:10.725Z,7.60
2018-02-13T13:57:39.621Z,7.20
2018-02-13T14:00:07.782Z,7.55
2018-02-13T14:02:35.915Z,7.45
2018-02-13T14:05:04.081Z,8.20
2018-02-13T14:07:32.209Z,8.70
2018-02-13T14:10:00.340Z,8.90
2018-02-13T14:12:28.492Z,9.85
2018-02-13T14:14:56.616Z,9.75
2018-02-13T14:17:26.563Z,9.70
2018-02-13T14:19:54.688Z,9.18
2018-02-13T14:22:22.847Z,9.68
2018-02-13T14:24:50.990Z,10.23
2018-02-13T14:27:19.153Z,9.65
2018-02-13T14:29:47.290Z,8.60
2018-02-13T14:32:15.433Z,9.48
2018-02-13T14:34:43.566Z,9.77
2018-02-13T14:37:12.498Z,8.77
2018-02-13T14:39:40.630Z,8.32
2018-02-13T14:42:09.550Z,7.95
2018-02-13T14:44:37.681Z,9.50
2018-02-13T14:47:05.845Z,9.25
2018-02-13T14:49:33.977Z,9.50
2018-02-13T14:52:02.157Z,9.10
2018-02-13T14:54:30.291Z,8.80
2018-02-13T14:56:59.208Z,8.68
2018-02-13T14:59:27.360Z,8.68
2018-02-13T15:01:56.301Z,9.25
2018-02-13T15:04:24.441Z,9.80
2018-02-13T15:06:52.597Z,9.55
2018-02-13T15:09:20.769Z,8.02
2018-02-13T15:11:48.957Z,7.78
2018-02-13T15:14:17.099Z,7.50
2018-02-13T15:16:45.251Z,8.07
2018-02-13T15:19:13.401Z,9.40
2018-02-13T15:21:41.665Z,8.77
2018-02-13T15:24:09.810Z,8.82
2018-02-13T15:26:37.974Z,9.10
2018-02-13T15:29:06.916Z,8.48
2018-02-13T15:31:35.987Z,7.72
2018-02-13T15:34:04.109Z,9.15
2018-02-13T15:36:32.258Z,7.93
2018-02-13T15:39:00.441Z,9.00
2018-02-13T15:41:28.590Z,8.15
2018-02-13T15:43:56.718Z,8.93
2018-02-13T15:46:24.906Z,8.50
2018-02-13T15:48:53.087Z,9.40
2018-02-13T15:51:21.222Z,9.27
2018-02-13T15:53:49.376Z,9.82
2018-02-13T15:56:17.589Z,9.15
2018-02-13T15:58:45.722Z,9.60
2018-02-13T16:01:13.882Z,8.73
2018-02-13T16:03:42.010Z,9.00
2018-02-13T16:06:10.178Z,9.15
2018-02-13T16:08:38.312Z,8.18
2018-02-13T16:11:06.479Z,6.18
2018-02-13T16:13:34.598Z,9.80
2018-02-13T16:16:02.745Z,9.55
2018-02-13T16:18:30.868Z,6.90
2018-02-13T16:20:59.899Z,8.00
2018-02-13T16:23:28.019Z,6.43
2018-02-13T16:25:56.169Z,7.28
2018-02-13T16:28:24.297Z,7.10
2018-02-13T16:30:52.465Z,5.85
2018-02-13T16:33:20.588Z,8.88
2018-02-13T16:35:48.713Z,8.07
2018-02-13T16:38:16.877Z,8.75
2018-02-13T16:40:44.996Z,8.77
2018-02-13T16:43:13.146Z,8.10
2018-02-13T16:45:41.269Z,9.50
2018-02-13T16:48:09.430Z,8.55
2018-02-13T16:50:37.558Z,9.20
2018-02-13T16:53:05.715Z,8.27
2018-02-13T16:55:34.611Z,7.55
2018-02-13T16:58:02.769Z,7.95
2018-02-13T17:00:31.656Z,8.65
2018-02-13T17:02:59.817Z,8.00
2018-02-13T17:05:27.965Z,8.93
2018-02-13T17:07:56.122Z,10.65
2018-02-13T17:10:24.266Z,10.00
2018-02-13T17:12:52.425Z,12.00
2018-02-13T17:15:21.330Z,11.32
2018-02-13T17:17:49.492Z,10.10
2018-02-13T17:20:18.381Z,10.38
2018-02-13T17:22:46.560Z,10.52
2018-02-13T17:25:15.461Z,13.98
2018-02-13T17:27:44.380Z,12.52
2018-02-13T17:30:12.513Z,12.35
2018-02-13T17:32:41.441Z,10.60
2018-02-13T17:35:10.024Z,10.52
2018-02-13T17:37:38.215Z,10.27
2018-02-13T17:40:06.348Z,10.35
2018-02-13T17:42:34.520Z,11.02
2018-02-13T17:45:04.039Z,10.80
2018-02-13T17:47:33.325Z,10.80
2018-02-13T17:50:01.460Z,10.88
2018-02-13T17:52:29.612Z,11.30
2018-02-13T17:54:58.912Z,12.48
2018-02-13T17:57:27.466Z,11.12
2018-02-13T17:59:55.890Z,12.55
2018-02-13T18:02:24.602Z,13.10
2018-02-13T18:04:52.895Z,14.68
2018-02-13T18:07:21.372Z,13.20
2018-02-13T18:09:49.716Z,11.48
2018-02-13T18:12:19.005Z,11.70
2018-02-13T18:14:47.375Z,12.45
2018-02-13T18:17:15.726Z,13.07
2018-02-13T18:19:43.871Z,14.63
2018-02-13T18:22:12.812Z,12.65
2018-02-13T18:24:40.959Z,12.60
2018-02-13T18:27:09.129Z,13.40
2018-02-13T18:29:37.384Z,12.05
2018-02-13T18:32:06.500Z,13.55
2018-02-13T18:34:34.809Z,14.68
2018-02-13T18:37:02.989Z,13.73
2018-02-13T18:39:32.335Z,14.75
2018-02-13T18:42:00.690Z,14.65
2018-02-13T18:44:29.093Z,12.90
2018-02-13T18:46:57.895Z,15.57
2018-02-13T18:49:26.819Z,14.30
2018-02-13T18:51:55.128Z,14.82
2018-02-13T18:54:23.625Z,12.37
2018-02-13T18:56:52.294Z,13.38
2018-02-13T18:59:21.151Z,15.60
2018-02-13T19:01:49.392Z,15.52
2018-02-13T19:04:18.305Z,14.40
2018-02-13T19:06:46.468Z,15.02
2018-02-13T19:09:14.631Z,14.98
2018-02-13T19:11:43.176Z,15.70
2018-02-13T19:14:11.579Z,15.40
2018-02-13T19:16:39.785Z,17.27
2018-02-13T19:19:08.001Z,16.55
2018-02-13T19:21:36.156Z,15.48
2018-02-13T19:24:04.397Z,16.15
2018-02-13T19:26:32.621Z,16.15
2018-02-13T19:29:00.813Z,14.02
2018-02-13T19:31:29.155Z,16.10
2018-02-13T19:33:58.506Z,14.23
2018-02-13T19:36:26.717Z,15.13
2018-02-13T19:38:54.909Z,16.67
2018-02-13T19:41:23.236Z,16.92
2018-02-13T19:43:52.214Z,15.00
2018-02-13T19:46:20.563Z,17.35
2018-02-13T19:48:48.750Z,17.42
2018-02-13T19:51:17.033Z,13.82
2018-02-13T19:53:45.220Z,15.63
2018-02-13T19:56:13.375Z,15.35
2018-02-13T19:58:41.552Z,15.77
2018-02-13T20:01:09.729Z,15.80
2018-02-13T20:03:37.893Z,16.40
2018-02-13T20:06:06.043Z,16.40
2018-02-13T20:08:34.273Z,16.65
2018-02-13T20:11:02.414Z,16.70
2018-02-13T20:13:30.626Z,16.27
2018-02-13T20:15:58.807Z,16.33
2018-02-13T20:18:26.967Z,15.00
2018-02-13T20:20:55.142Z,18.30
2018-02-13T20:23:23.351Z,17.33
2018-02-13T20:25:51.504Z,16.80
2018-02-13T20:28:20.453Z,15.15
2018-02-13T20:30:48.601Z,17.90
2018-02-13T20:33:16.774Z,16.58
2018-02-13T20:35:44.908Z,17.15
2018-02-13T20:38:13.071Z,19.30
2018-02-13T20:40:41.229Z,18.77
2018-02-13T20:43:09.400Z,17.35
2018-02-13T20:45:37.540Z,18.00
2018-02-13T20:48:05.723Z,17.67
2018-02-13T20:50:33.857Z,18.17
2018-02-13T20:53:02.032Z,16.87
2018-02-13T20:55:30.170Z,17.30
2018-02-13T20:57:58.363Z,17.10
2018-02-13T21:00:26.501Z,17.33
2018-02-13T21:02:54.674Z,16.58
2018-02-13T21:05:22.817Z,17.25
2018-02-13T21:07:50.984Z,17.85
2018-02-13T21:10:19.133Z,17.90
2018-02-13T21:12:47.292Z,19.48
2018-02-13T21:15:15.433Z,20.92
2018-02-13T21:17:43.617Z,18.30
2018-02-13T21:20:11.823Z,17.55
2018-02-13T21:22:40.757Z,20.58
2018-02-13T21:25:08.925Z,18.10
2018-02-13T21:27:37.151Z,21.60
2018-02-13T21:30:05.285Z,19.50
2018-02-13T21:32:33.478Z,18.85
2018-02-13T21:35:01.649Z,17.45
2018-02-13T21:37:29.790Z,17.95
2018-02-13T21:39:57.973Z,17.37
2018-02-13T21:42:26.103Z,16.30
2018-02-13T21:44:54.265Z,17.12
2018-02-13T21:47:22.406Z,15.20
2018-02-13T21:49:50.728Z,17.05
2018-02-13T21:52:18.908Z,19.60
2018-02-13T21:54:47.865Z,17.70
2018-02-13T21:57:16.023Z,19.08
2018-02-13T21:59:44.193Z,18.42
2018-02-13T22:02:12.346Z,18.00
2018-02-13T22:04:40.526Z,17.00
2018-02-13T22:07:08.665Z,19.27
2018-02-13T22:09:36.850Z,18.40
2018-02-13T22:12:04.988Z,17.42
2018-02-13T22:14:33.162Z,21.62
2018-02-13T22:17:01.299Z,19.30
2018-02-13T22:19:29.467Z,17.80
2018-02-13T22:21:58.515Z,20.55
2018-02-13T22:24:26.682Z,20.45
2018-02-13T22:26:54.867Z,17.87
2018-02-13T22:29:23.041Z,19.17
2018-02-13T22:31:51.181Z,18.62
2018-02-13T22:34:19.370Z,20.33
2018-02-13T22:36:47.518Z,18.58
2018-02-13T22:39:15.731Z,20.10
2018-02-13T22:41:43.873Z,19.83
2018-02-13T22:44:12.049Z,18.77
2018-02-13T22:46:40.186Z,18.77
2018-02-13T22:49:09.110Z,20.52
2018-02-13T22:51:37.268Z,20.40
2018-02-13T22:54:05.436Z,18.67
2018-02-13T22:56:33.581Z,18.27
2018-02-13T22:59:01.777Z,21.55
2018-02-13T23:01:30.685Z,18.67
2018-02-13T23:03:58.861Z,18.23
2018-02-13T23:06:27.001Z,16.37
2018-02-13T23:08:55.169Z,17.73
2018-02-13T23:11:23.316Z,18.55
2018-02-13T23:13:51.487Z,15.00
2018-02-13T23:16:19.624Z,17.75
2018-02-13T23:18:47.794Z,19.33
2018-02-13T23:21:15.944Z,18.00
2018-02-13T23:23:44.887Z,17.65
2018-02-13T23:26:13.031Z,15.90
2018-02-13T23:28:41.194Z,15.13
2018-02-13T23:31:09.338Z,18.95
2018-02-13T23:33:37.508Z,17.25
2018-02-13T23:36:05.728Z,19.05
2018-02-13T23:38:33.937Z,18.58
2018-02-13T23:41:02.091Z,17.65
2018-02-13T23:43:30.314Z,18.67
2018-02-13T23:45:58.567Z,16.35
2018-02-13T23:48:26.717Z,17.73
2018-02-13T23:50:54.852Z,18.23
2018-02-13T23:53:23.012Z,20.10
2018-02-13T23:55:51.151Z,16.35
2018-02-13T23:58:19.309Z,18.98
